Terminal Aerodrome Forecast
Issued by NWS

Home | Current Version | Previous Version | Text Only | Print | Product List | Glossary On
Versions: 1 2 3 4 5 6 7 8 9 10 11 12 13 14 15 16
000
FTPQ31 PGUM 092336
TAFGUM
TAF

TAF
PGWT 092336Z 1000/1024 09013KT P6SM VCSH FEW018 SCT040 BKN120
      TEMPO 1000/1004 -SHRA SCT016 BKN030
     FM100900 07009KT P6SM VCSH FEW020 SCT050=

USA.gov is the U.S. government's official web portal to all federal, state and local government web resources and services.